Missouriborg — PFBI — position and weather

sailwx.info

Track history (hours):
 
Tides and Currents Weather Stations Pressure Air Temp Water Temp Dewpoint Dewpoint Depression Visibility Wind Speed Wind Dir Waves Ship Positions

Missouriborg

Last reported at 2017-Sep-18 15:25 UTC. Time now 2017-Sep-21 07:11 UTC.
Position N 60°32' E 027°11'.

Length 135 m; draft 5.5 m.

Type: Cargo ship. MMSI: 245170000.

Date/timePositionNaut miles runAvg speedWind from/ knotsBaromVisibWave heightAir tempDewpointWater temp
2017-Sep-18 15:25N 60°32' E 027°11'2 4.3
2017-Sep-18 15:00N 60°30' E 027°09'510.7
2017-Sep-18 14:30N 60°25' E 027°08'5 9.8
2017-Sep-18 14:00N 60°21' E 027°02'611.3
2017-Sep-18 13:30N 60°27' E 026°58'3 5.4
2017-Sep-18 13:00N 60°29' E 026°57'0 0.0
2017-Sep-18 12:30N 60°29' E 026°57'0 0.0
2017-Sep-18 12:00N 60°29' E 026°57'0 0.0
2017-Sep-18 11:29N 60°29' E 026°57'0 0.0
2017-Sep-18 10:59N 60°29' E 026°57'0 0.0
2017-Sep-18 10:29N 60°29' E 026°57'0 0.0
2017-Sep-18 09:56N 60°29' E 026°57'0 0.0
2017-Sep-18 09:29N 60°29' E 026°57'0 0.0
2017-Sep-18 08:58N 60°29' E 026°57'0 0.0
2017-Sep-18 08:28N 60°29' E 026°57'0 0.0
2017-Sep-18 07:58N 60°29' E 026°57'0 0.0
2017-Sep-18 07:28N 60°29' E 026°57'0 0.0
2017-Sep-18 06:58N 60°29' E 026°57'0 0.0
2017-Sep-18 06:30N 60°29' E 026°57'0 0.0
2017-Sep-18 06:00N 60°29' E 026°57'0 0.0
2017-Sep-18 05:30N 60°29' E 026°57'0 0.0
2017-Sep-18 05:00N 60°29' E 026°57'0 0.0
2017-Sep-18 04:29N 60°29' E 026°57'0 0.0
2017-Sep-18 03:59N 60°29' E 026°57'0 0.0
2017-Sep-18 03:30N 60°29' E 026°57'1 1.6
2017-Sep-18 03:01N 60°29' E 026°58'5 9.9
2017-Sep-18 02:31N 60°24' E 026°53'611.9
2017-Sep-18 02:01N 60°22' E 026°42'611.8
2017-Sep-18 01:31N 60°18' E 026°33'611.4
2017-Sep-18 01:01N 60°14' E 026°25'611.6
2017-Sep-18 00:31N 60°09' E 026°20'611.3
2017-Sep-18 00:00N 60°05' E 026°12'4010.8
2017-Sep-17 20:18N 59°47' E 024°60'311.5
2017-Sep-17 20:00N 59°47' E 024°53'611.6
2017-Sep-17 19:30N 59°45' E 024°42'611.6
2017-Sep-17 19:00N 59°44' E 024°31'611.6
2017-Sep-17 18:30N 59°42' E 024°20'611.7
2017-Sep-17 17:59N 59°40' E 024°08'611.6
2017-Sep-17 17:29N 59°38' E 023°58'511.3
2017-Sep-17 17:00N 59°36' E 023°48'611.3
2017-Sep-17 16:30N 59°34' E 023°38'611.1
2017-Sep-17 16:00N 59°33' E 023°27'610.8
2017-Sep-17 15:29N 59°31' E 023°16'511.1
2017-Sep-17 15:00N 59°30' E 023°06'26711.8
2017-Sep-16 16:18N 55°25' E 019°48'712.2
2017-Sep-16 15:45N 55°18' E 019°45'312.2
2017-Sep-16 15:30N 55°15' E 019°43'612.2
2017-Sep-16 15:00N 55°09' E 019°40'612.3
2017-Sep-16 14:31N 55°04' E 019°38'612.3
2017-Sep-16 14:01N 54°57' E 019°37'612.4
2017-Sep-16 13:31N 54°51' E 019°37'612.4
2017-Sep-16 13:00N 54°45' E 019°37'612.0
2017-Sep-16 12:30N 54°42' E 019°46'611.1
2017-Sep-16 12:00N 54°38' E 019°53'  
2017-Sep-13 02:10N 54°39' E 020°03'3 8.4
2017-Sep-13 01:52N 54°38' E 019°59'3 7.7
2017-Sep-13 01:30N 54°38' E 019°54'4 8.6
2017-Sep-13 01:00N 54°40' E 019°48'5 9.9
2017-Sep-13 00:29N 54°43' E 019°40'5 9.8
2017-Sep-13 00:00N 54°45' E 019°33'5 9.8
2017-Sep-12 23:30N 54°47' E 019°25'4 7.1
2017-Sep-12 23:00N 54°46' E 019°19'2 3.6
2017-Sep-12 22:30N 54°46' E 019°16'4 8.0
2017-Sep-12 22:00N 54°50' E 019°14'4 9.0
2017-Sep-12 21:30N 54°50' E 019°06'611.4
2017-Sep-12 21:00N 54°52' E 018°57'611.5
2017-Sep-12 20:30N 54°54' E 018°48'611.4
2017-Sep-12 20:00N 54°55' E 018°38'611.5
2017-Sep-12 19:30N 54°55' E 018°28'10511.6
2017-Sep-12 10:30N 54°49' E 015°26'611.9
2017-Sep-12 10:00N 54°50' E 015°16'611.8
2017-Sep-12 09:30N 54°50' E 015°06'611.8
2017-Sep-12 09:00N 54°50' E 014°56'611.5
2017-Sep-12 08:30N 54°51' E 014°46'611.3
2017-Sep-12 08:00N 54°55' E 014°38'611.1
2017-Sep-12 07:30N 54°59' E 014°31'611.2
2017-Sep-12 07:00N 55°02' E 014°23'611.2
2017-Sep-12 06:30N 55°05' E 014°15'611.0
2017-Sep-12 06:00N 55°08' E 014°07'611.4
2017-Sep-12 05:30N 55°09' E 013°57'611.4
2017-Sep-12 05:00N 55°10' E 013°48'611.4
2017-Sep-12 04:30N 55°11' E 013°38'611.5
2017-Sep-12 04:00N 55°12' E 013°28'611.3
2017-Sep-12 03:30N 55°13' E 013°18'611.5
2017-Sep-12 03:00N 55°13' E 013°08'611.6
2017-Sep-12 02:30N 55°14' E 012°58'611.6
2017-Sep-12 02:00N 55°16' E 012°48'511.0
2017-Sep-12 01:30N 55°18' E 012°39'5 9.0
2017-Sep-12 01:00N 55°23' E 012°39'510.1
2017-Sep-12 00:30N 55°27' E 012°40'510.1
2017-Sep-12 00:00N 55°32' E 012°42'5 9.8
2017-Sep-11 23:30N 55°37' E 012°42'4 8.9
2017-Sep-11 23:00N 55°42' E 012°41'5 9.9
2017-Sep-11 22:30N 55°47' E 012°41'510.3
2017-Sep-11 22:00N 55°52' E 012°40'5 9.9
2017-Sep-11 21:30N 55°56' E 012°38'5 9.8
2017-Sep-11 21:00N 56°01' E 012°38'4 8.2
2017-Sep-11 20:30N 56°05' E 012°35'611.0
2017-Sep-11 20:00N 56°08' E 012°27'611.1
2017-Sep-11 19:30N 56°12' E 012°19'5310.3
2017-Sep-11 14:21N 56°60' E 011°39'410.1
2017-Sep-11 13:59N 57°03' E 011°35'510.3
2017-Sep-11 13:29N 57°07' E 011°31'510.1
2017-Sep-11 13:00N 57°12' E 011°27'5 9.5
2017-Sep-11 12:30N 57°16' E 011°23'5 9.2
2017-Sep-11 12:00N 57°20' E 011°19'4 8.5
2017-Sep-11 11:30N 57°23' E 011°14'4 7.3
2017-Sep-11 10:58N 57°22' E 011°07'0 0.3
2017-Sep-11 10:30N 57°22' E 011°07'0 0.0
2017-Sep-11 10:00N 57°22' E 011°07'0 0.0
2017-Sep-11 09:27N 57°22' E 011°07'0 0.1
2017-Sep-11 09:00N 57°22' E 011°07'0 0.0
2017-Sep-11 08:26N 57°22' E 011°07'0 0.0
2017-Sep-11 07:53N 57°22' E 011°07'0 0.1
2017-Sep-11 07:30N 57°22' E 011°07'2 3.6
2017-Sep-11 07:01N 57°23' E 011°06'5 9.6
2017-Sep-11 06:30N 57°28' E 011°03'5 9.5
2017-Sep-11 06:00N 57°32' E 010°58'5 8.9
2017-Sep-11 05:30N 57°36' E 010°53'4 8.4
2017-Sep-11 05:00N 57°39' E 010°50'4 8.8
2017-Sep-11 04:30N 57°44' E 010°47'4 8.8
2017-Sep-11 04:00N 57°47' E 010°42'611.2
2017-Sep-11 03:30N 57°47' E 010°32'9111.1
2017-Sep-10 19:18N 57°42' E 007°41'311.1
2017-Sep-10 19:00N 57°42' E 007°35'611.2
2017-Sep-10 18:30N 57°43' E 007°25'611.0
2017-Sep-10 18:00N 57°43' E 007°14'610.9
2017-Sep-10 17:30N 57°43' E 007°04'611.1
2017-Sep-10 16:59N 57°43' E 006°53'611.1
2017-Sep-10 16:29N 57°43' E 006°43'511.1
2017-Sep-10 16:00N 57°44' E 006°33'611.3
2017-Sep-10 15:30N 57°48' E 006°25'510.8
2017-Sep-10 15:00N 57°51' E 006°17'1110.7
2017-Sep-10 14:00N 57°58' E 006°01'510.8
2017-Sep-10 13:29N 58°02' E 005°54'510.8
2017-Sep-10 12:59N 58°05' E 005°46'1310.4
2017-Sep-10 11:47N 58°14' E 005°28'610.5
2017-Sep-10 11:12N 58°17' E 005°19'210.8
2017-Sep-10 10:59N 58°19' E 005°15'610.7
2017-Sep-10 10:28N 58°23' E 005°07'511.1
2017-Sep-10 10:00N 58°26' E 005°01'510.8
2017-Sep-10 09:31N 58°30' E 004°54'510.5
2017-Sep-10 09:01N 58°34' E 004°47'510.4
2017-Sep-10 08:31N 58°38' E 004°40'710.7
2017-Sep-10 07:53N 58°43' E 004°32'11310.2
2017-Sep-09 20:52N 60°36' E 004°22'3 9.4
2017-Sep-09 20:30N 60°38' E 004°25'5 9.4
2017-Sep-09 20:00N 60°42' E 004°31'5 9.7
2017-Sep-09 19:30N 60°45' E 004°40'4 7.3
2017-Sep-09 19:00N 60°47' E 004°45'4 8.1
2017-Sep-09 18:31N 60°51' E 004°49'611.8
2017-Sep-09 18:01N 60°50' E 005°01'2 3.2
2017-Sep-09 17:30N 60°51' E 005°04'0 0.0
2017-Sep-09 16:58N 60°51' E 005°04'0 0.0
2017-Sep-09 16:28N 60°51' E 005°04'0 0.0
2017-Sep-09 16:00N 60°51' E 005°04'0 0.0
2017-Sep-09 15:30N 60°51' E 005°04'0 0.0
2017-Sep-09 15:00N 60°51' E 005°04'0 0.0
2017-Sep-09 14:30N 60°51' E 005°04'0 0.0
2017-Sep-09 14:00N 60°51' E 005°04'0 0.0
2017-Sep-09 13:29N 60°51' E 005°04'0 0.0
2017-Sep-09 12:59N 60°51' E 005°04'0 0.0
2017-Sep-09 12:29N 60°51' E 005°04'0 0.0
2017-Sep-09 11:59N 60°51' E 005°04'0 0.0
2017-Sep-09 11:28N 60°51' E 005°04'0 0.0
2017-Sep-09 10:58N 60°51' E 005°04'0 0.0
2017-Sep-09 10:28N 60°51' E 005°04'0 0.0
2017-Sep-09 10:00N 60°51' E 005°04'0 0.0
2017-Sep-09 09:28N 60°51' E 005°04'0 0.0
2017-Sep-09 09:00N 60°51' E 005°04'0 0.0
2017-Sep-09 08:30N 60°51' E 005°04'0 0.0
2017-Sep-09 08:00N 60°51' E 005°04'0 0.0
2017-Sep-09 07:30N 60°51' E 005°04'0 0.0
2017-Sep-09 06:59N 60°51' E 005°04'0 0.0
2017-Sep-09 06:29N 60°51' E 005°04'0 0.0
2017-Sep-09 05:59N 60°51' E 005°04'0 0.0
2017-Sep-09 05:29N 60°51' E 005°04'0 0.0
2017-Sep-09 04:59N 60°51' E 005°04'0 0.0
2017-Sep-09 04:28N 60°51' E 005°04'0 0.0
2017-Sep-09 03:58N 60°51' E 005°04'0 0.0
2017-Sep-09 03:28N 60°51' E 005°04'0 0.0
2017-Sep-09 02:58N 60°51' E 005°04'0 0.0
2017-Sep-09 02:28N 60°51' E 005°04'0 0.0
2017-Sep-09 02:00N 60°51' E 005°04'1 2.8
2017-Sep-09 01:30N 60°50' E 005°02'611.2
2017-Sep-09 01:00N 60°51' E 004°50'4 8.6
2017-Sep-09 00:30N 60°47' E 004°45'4 7.8
2017-Sep-09 00:00N 60°44' E 004°39'4 8.4
2017-Sep-08 23:30N 60°43' E 004°31'4 8.5
2017-Sep-08 23:00N 60°40' E 004°27'510.9
2017-Sep-08 22:30N 60°34' E 004°23'1 1.8
2017-Sep-08 22:00N 60°34' E 004°24'1 1.2
2017-Sep-08 21:30N 60°33' E 004°24'1 1.5
2017-Sep-08 21:00N 60°32' E 004°25'1 1.6
2017-Sep-08 20:30N 60°32' E 004°25'1 1.5
2017-Sep-08 20:00N 60°31' E 004°26'1 1.4
2017-Sep-08 19:30N 60°30' E 004°27'1 1.8
2017-Sep-08 19:00N 60°30' E 004°28'1 2.2
2017-Sep-08 18:31N 60°29' E 004°28'1 2.0
2017-Sep-08 18:00N 60°28' E 004°29'1 1.9
2017-Sep-08 17:29N 60°27' E 004°30'1 1.7
2017-Sep-08 17:00N 60°26' E 004°30'1 1.6
2017-Sep-08 16:30N 60°25' E 004°30'1 1.9
2017-Sep-08 16:00N 60°24' E 004°31'1 2.1
2017-Sep-08 15:30N 60°23' E 004°31'  
Track history (hours):
 
Tides and Currents Weather Stations Pressure Air Temp Water Temp Dewpoint Dewpoint Depression Visibility Wind Speed Wind Dir Waves Ship Positions

Missouriborg

Last reported at 2017-Sep-18 15:25 UTC. Time now 2017-Sep-21 07:11 UTC.
Position N 60°32' E 027°11'.

Length 135 m; draft 5.5 m.

Type: Cargo ship. MMSI: 245170000.

Date/timePositionNaut miles runAvg speedWind from/ knotsBaromVisibWave heightAir tempDewpointWater temp
2017-Sep-18 15:25N 60°32' E 027°11'2 4.3
2017-Sep-18 15:00N 60°30' E 027°09'510.7
2017-Sep-18 14:30N 60°25' E 027°08'5 9.8
2017-Sep-18 14:00N 60°21' E 027°02'611.3
2017-Sep-18 13:30N 60°27' E 026°58'3 5.4
2017-Sep-18 13:00N 60°29' E 026°57'0 0.0
2017-Sep-18 12:30N 60°29' E 026°57'0 0.0
2017-Sep-18 12:00N 60°29' E 026°57'0 0.0
2017-Sep-18 11:29N 60°29' E 026°57'0 0.0
2017-Sep-18 10:59N 60°29' E 026°57'0 0.0
2017-Sep-18 10:29N 60°29' E 026°57'0 0.0
2017-Sep-18 09:56N 60°29' E 026°57'0 0.0
2017-Sep-18 09:29N 60°29' E 026°57'0 0.0
2017-Sep-18 08:58N 60°29' E 026°57'0 0.0
2017-Sep-18 08:28N 60°29' E 026°57'0 0.0
2017-Sep-18 07:58N 60°29' E 026°57'0 0.0
2017-Sep-18 07:28N 60°29' E 026°57'0 0.0
2017-Sep-18 06:58N 60°29' E 026°57'0 0.0
2017-Sep-18 06:30N 60°29' E 026°57'0 0.0
2017-Sep-18 06:00N 60°29' E 026°57'0 0.0
2017-Sep-18 05:30N 60°29' E 026°57'0 0.0
2017-Sep-18 05:00N 60°29' E 026°57'0 0.0
2017-Sep-18 04:29N 60°29' E 026°57'0 0.0
2017-Sep-18 03:59N 60°29' E 026°57'0 0.0
2017-Sep-18 03:30N 60°29' E 026°57'1 1.6
2017-Sep-18 03:01N 60°29' E 026°58'5 9.9
2017-Sep-18 02:31N 60°24' E 026°53'611.9
2017-Sep-18 02:01N 60°22' E 026°42'611.8
2017-Sep-18 01:31N 60°18' E 026°33'611.4
2017-Sep-18 01:01N 60°14' E 026°25'611.6
2017-Sep-18 00:31N 60°09' E 026°20'611.3
2017-Sep-18 00:00N 60°05' E 026°12'4010.8
2017-Sep-17 20:18N 59°47' E 024°60'311.5
2017-Sep-17 20:00N 59°47' E 024°53'611.6
2017-Sep-17 19:30N 59°45' E 024°42'611.6
2017-Sep-17 19:00N 59°44' E 024°31'611.6
2017-Sep-17 18:30N 59°42' E 024°20'611.7
2017-Sep-17 17:59N 59°40' E 024°08'611.6
2017-Sep-17 17:29N 59°38' E 023°58'511.3
2017-Sep-17 17:00N 59°36' E 023°48'611.3
2017-Sep-17 16:30N 59°34' E 023°38'611.1
2017-Sep-17 16:00N 59°33' E 023°27'610.8
2017-Sep-17 15:29N 59°31' E 023°16'511.1
2017-Sep-17 15:00N 59°30' E 023°06'26711.8
2017-Sep-16 16:18N 55°25' E 019°48'712.2
2017-Sep-16 15:45N 55°18' E 019°45'312.2
2017-Sep-16 15:30N 55°15' E 019°43'612.2
2017-Sep-16 15:00N 55°09' E 019°40'612.3
2017-Sep-16 14:31N 55°04' E 019°38'612.3
2017-Sep-16 14:01N 54°57' E 019°37'612.4
2017-Sep-16 13:31N 54°51' E 019°37'612.4
2017-Sep-16 13:00N 54°45' E 019°37'612.0
2017-Sep-16 12:30N 54°42' E 019°46'611.1
2017-Sep-16 12:00N 54°38' E 019°53'  
2017-Sep-13 02:10N 54°39' E 020°03'3 8.4
2017-Sep-13 01:52N 54°38' E 019°59'3 7.7
2017-Sep-13 01:30N 54°38' E 019°54'4 8.6
2017-Sep-13 01:00N 54°40' E 019°48'5 9.9
2017-Sep-13 00:29N 54°43' E 019°40'5 9.8
2017-Sep-13 00:00N 54°45' E 019°33'5 9.8
2017-Sep-12 23:30N 54°47' E 019°25'4 7.1
2017-Sep-12 23:00N 54°46' E 019°19'2 3.6
2017-Sep-12 22:30N 54°46' E 019°16'4 8.0
2017-Sep-12 22:00N 54°50' E 019°14'4 9.0
2017-Sep-12 21:30N 54°50' E 019°06'611.4
2017-Sep-12 21:00N 54°52' E 018°57'611.5
2017-Sep-12 20:30N 54°54' E 018°48'611.4
2017-Sep-12 20:00N 54°55' E 018°38'611.5
2017-Sep-12 19:30N 54°55' E 018°28'10511.6
2017-Sep-12 10:30N 54°49' E 015°26'611.9
2017-Sep-12 10:00N 54°50' E 015°16'611.8
2017-Sep-12 09:30N 54°50' E 015°06'611.8
2017-Sep-12 09:00N 54°50' E 014°56'611.5
2017-Sep-12 08:30N 54°51' E 014°46'611.3
2017-Sep-12 08:00N 54°55' E 014°38'611.1
2017-Sep-12 07:30N 54°59' E 014°31'611.2
2017-Sep-12 07:00N 55°02' E 014°23'611.2
2017-Sep-12 06:30N 55°05' E 014°15'611.0
2017-Sep-12 06:00N 55°08' E 014°07'611.4
2017-Sep-12 05:30N 55°09' E 013°57'611.4
2017-Sep-12 05:00N 55°10' E 013°48'611.4
2017-Sep-12 04:30N 55°11' E 013°38'611.5
2017-Sep-12 04:00N 55°12' E 013°28'611.3
2017-Sep-12 03:30N 55°13' E 013°18'611.5
2017-Sep-12 03:00N 55°13' E 013°08'611.6
2017-Sep-12 02:30N 55°14' E 012°58'611.6
2017-Sep-12 02:00N 55°16' E 012°48'511.0
2017-Sep-12 01:30N 55°18' E 012°39'5 9.0
2017-Sep-12 01:00N 55°23' E 012°39'510.1
2017-Sep-12 00:30N 55°27' E 012°40'510.1
2017-Sep-12 00:00N 55°32' E 012°42'5 9.8
2017-Sep-11 23:30N 55°37' E 012°42'4 8.9
2017-Sep-11 23:00N 55°42' E 012°41'5 9.9
2017-Sep-11 22:30N 55°47' E 012°41'510.3
2017-Sep-11 22:00N 55°52' E 012°40'5 9.9
2017-Sep-11 21:30N 55°56' E 012°38'5 9.8
2017-Sep-11 21:00N 56°01' E 012°38'4 8.2
2017-Sep-11 20:30N 56°05' E 012°35'611.0
2017-Sep-11 20:00N 56°08' E 012°27'611.1
2017-Sep-11 19:30N 56°12' E 012°19'5310.3
2017-Sep-11 14:21N 56°60' E 011°39'410.1
2017-Sep-11 13:59N 57°03' E 011°35'510.3
2017-Sep-11 13:29N 57°07' E 011°31'510.1
2017-Sep-11 13:00N 57°12' E 011°27'5 9.5
2017-Sep-11 12:30N 57°16' E 011°23'5 9.2
2017-Sep-11 12:00N 57°20' E 011°19'4 8.5
2017-Sep-11 11:30N 57°23' E 011°14'4 7.3
2017-Sep-11 10:58N 57°22' E 011°07'0 0.3
2017-Sep-11 10:30N 57°22' E 011°07'0 0.0
2017-Sep-11 10:00N 57°22' E 011°07'0 0.0
2017-Sep-11 09:27N 57°22' E 011°07'0 0.1
2017-Sep-11 09:00N 57°22' E 011°07'0 0.0
2017-Sep-11 08:26N 57°22' E 011°07'0 0.0
2017-Sep-11 07:53N 57°22' E 011°07'0 0.1
2017-Sep-11 07:30N 57°22' E 011°07'2 3.6
2017-Sep-11 07:01N 57°23' E 011°06'5 9.6
2017-Sep-11 06:30N 57°28' E 011°03'5 9.5
2017-Sep-11 06:00N 57°32' E 010°58'5 8.9
2017-Sep-11 05:30N 57°36' E 010°53'4 8.4
2017-Sep-11 05:00N 57°39' E 010°50'4 8.8
2017-Sep-11 04:30N 57°44' E 010°47'4 8.8
2017-Sep-11 04:00N 57°47' E 010°42'611.2
2017-Sep-11 03:30N 57°47' E 010°32'9111.1
2017-Sep-10 19:18N 57°42' E 007°41'311.1
2017-Sep-10 19:00N 57°42' E 007°35'611.2
2017-Sep-10 18:30N 57°43' E 007°25'611.0
2017-Sep-10 18:00N 57°43' E 007°14'610.9
2017-Sep-10 17:30N 57°43' E 007°04'611.1
2017-Sep-10 16:59N 57°43' E 006°53'611.1
2017-Sep-10 16:29N 57°43' E 006°43'511.1
2017-Sep-10 16:00N 57°44' E 006°33'611.3
2017-Sep-10 15:30N 57°48' E 006°25'510.8
2017-Sep-10 15:00N 57°51' E 006°17'1110.7
2017-Sep-10 14:00N 57°58' E 006°01'510.8
2017-Sep-10 13:29N 58°02' E 005°54'510.8
2017-Sep-10 12:59N 58°05' E 005°46'1310.4
2017-Sep-10 11:47N 58°14' E 005°28'610.5
2017-Sep-10 11:12N 58°17' E 005°19'210.8
2017-Sep-10 10:59N 58°19' E 005°15'610.7
2017-Sep-10 10:28N 58°23' E 005°07'511.1
2017-Sep-10 10:00N 58°26' E 005°01'510.8
2017-Sep-10 09:31N 58°30' E 004°54'510.5
2017-Sep-10 09:01N 58°34' E 004°47'510.4
2017-Sep-10 08:31N 58°38' E 004°40'710.7
2017-Sep-10 07:53N 58°43' E 004°32'11310.2
2017-Sep-09 20:52N 60°36' E 004°22'3 9.4
2017-Sep-09 20:30N 60°38' E 004°25'5 9.4
2017-Sep-09 20:00N 60°42' E 004°31'5 9.7
2017-Sep-09 19:30N 60°45' E 004°40'4 7.3
2017-Sep-09 19:00N 60°47' E 004°45'4 8.1
2017-Sep-09 18:31N 60°51' E 004°49'611.8
2017-Sep-09 18:01N 60°50' E 005°01'2 3.2
2017-Sep-09 17:30N 60°51' E 005°04'0 0.0
2017-Sep-09 16:58N 60°51' E 005°04'0 0.0
2017-Sep-09 16:28N 60°51' E 005°04'0 0.0
2017-Sep-09 16:00N 60°51' E 005°04'0 0.0
2017-Sep-09 15:30N 60°51' E 005°04'0 0.0
2017-Sep-09 15:00N 60°51' E 005°04'0 0.0
2017-Sep-09 14:30N 60°51' E 005°04'0 0.0
2017-Sep-09 14:00N 60°51' E 005°04'0 0.0
2017-Sep-09 13:29N 60°51' E 005°04'0 0.0
2017-Sep-09 12:59N 60°51' E 005°04'0 0.0
2017-Sep-09 12:29N 60°51' E 005°04'0 0.0
2017-Sep-09 11:59N 60°51' E 005°04'0 0.0
2017-Sep-09 11:28N 60°51' E 005°04'0 0.0
2017-Sep-09 10:58N 60°51' E 005°04'0 0.0
2017-Sep-09 10:28N 60°51' E 005°04'0 0.0
2017-Sep-09 10:00N 60°51' E 005°04'0 0.0
2017-Sep-09 09:28N 60°51' E 005°04'0 0.0
2017-Sep-09 09:00N 60°51' E 005°04'0 0.0
2017-Sep-09 08:30N 60°51' E 005°04'0 0.0
2017-Sep-09 08:00N 60°51' E 005°04'0 0.0
2017-Sep-09 07:30N 60°51' E 005°04'0 0.0
2017-Sep-09 06:59N 60°51' E 005°04'0 0.0
2017-Sep-09 06:29N 60°51' E 005°04'0 0.0
2017-Sep-09 05:59N 60°51' E 005°04'0 0.0
2017-Sep-09 05:29N 60°51' E 005°04'0 0.0
2017-Sep-09 04:59N 60°51' E 005°04'0 0.0
2017-Sep-09 04:28N 60°51' E 005°04'0 0.0
2017-Sep-09 03:58N 60°51' E 005°04'0 0.0
2017-Sep-09 03:28N 60°51' E 005°04'0 0.0
2017-Sep-09 02:58N 60°51' E 005°04'0 0.0
2017-Sep-09 02:28N 60°51' E 005°04'0 0.0
2017-Sep-09 02:00N 60°51' E 005°04'1 2.8
2017-Sep-09 01:30N 60°50' E 005°02'611.2
2017-Sep-09 01:00N 60°51' E 004°50'4 8.6
2017-Sep-09 00:30N 60°47' E 004°45'4 7.8
2017-Sep-09 00:00N 60°44' E 004°39'4 8.4
2017-Sep-08 23:30N 60°43' E 004°31'4 8.5
2017-Sep-08 23:00N 60°40' E 004°27'510.9
2017-Sep-08 22:30N 60°34' E 004°23'1 1.8
2017-Sep-08 22:00N 60°34' E 004°24'1 1.2
2017-Sep-08 21:30N 60°33' E 004°24'1 1.5
2017-Sep-08 21:00N 60°32' E 004°25'1 1.6
2017-Sep-08 20:30N 60°32' E 004°25'1 1.5
2017-Sep-08 20:00N 60°31' E 004°26'1 1.4
2017-Sep-08 19:30N 60°30' E 004°27'1 1.8
2017-Sep-08 19:00N 60°30' E 004°28'1 2.2
2017-Sep-08 18:31N 60°29' E 004°28'1 2.0
2017-Sep-08 18:00N 60°28' E 004°29'1 1.9
2017-Sep-08 17:29N 60°27' E 004°30'1 1.7
2017-Sep-08 17:00N 60°26' E 004°30'1 1.6
2017-Sep-08 16:30N 60°25' E 004°30'1 1.9
2017-Sep-08 16:00N 60°24' E 004°31'1 2.1
2017-Sep-08 15:30N 60°23' E 004°31'  

Dump ship's entire track history